Time;durP1;ratioP1;P1;durP2;ratioP2;P2;SDS_P1;SDS_P2;PMS_P1;PMS_P2;Temp;Humidity;BMP_temperature;BMP_pressure;BME280_temperature;BME280_humidity;BME280_pressure;Samples;Min_cycle;Max_cycle;Signal;HPM_P1;HPM_P2
2022/11/04 00:00:00;;;;;;;8.27;7.13;;;;;;;10.09;100.00;100086.44;5232919;28;20030;-71
2022/11/04 00:02:31;;;;;;;7.53;6.83;;;;;;;10.03;100.00;100088.53;5237115;28;20030;-71
2022/11/04 00:05:03;;;;;;;9.20;8.23;;;;;;;10.12;100.00;100079.19;5236394;28;20128;-70
2022/11/04 00:12:23;;;;;;;9.67;8.67;;;;;;;10.19;100.00;100081.38;5236112;28;20037;-71
2022/11/04 00:13:15;;;;;;;11.20;8.53;;;;;;;10.09;100.00;100075.97;5235802;28;20083;-72
2022/11/04 00:18:36;;;;;;;8.57;7.20;;;;;;;10.13;100.00;100093.09;5221349;28;20116;-72
2022/11/04 00:29:37;;;;;;;8.13;6.80;;;;;;;10.03;100.00;100103.38;5236206;28;20046;-71
2022/11/04 00:34:59;;;;;;;10.80;6.90;;;;;;;9.88;100.00;100111.34;5236711;28;20038;-71
2022/11/04 00:37:30;;;;;;;10.30;7.23;;;;;;;9.78;100.00;100105.91;5235269;28;20017;-71
2022/11/04 00:40:02;;;;;;;8.17;6.33;;;;;;;9.80;100.00;100119.72;5236565;28;20033;-71
2022/11/04 00:42:33;;;;;;;8.47;6.13;;;;;;;9.55;100.00;100076.09;5235649;28;20101;-71
2022/11/04 00:45:06;;;;;;;7.43;6.60;;;;;;;9.70;100.00;100110.00;5236480;28;20034;-71
2022/11/04 00:47:37;;;;;;;8.27;6.43;;;;;;;9.67;100.00;100109.25;5236371;28;20029;-72
2022/11/04 00:50:08;;;;;;;7.30;5.80;;;;;;;9.63;100.00;100104.34;5235910;28;20021;-72
2022/11/04 00:52:40;;;;;;;11.47;6.77;;;;;;;9.57;100.00;100102.97;5236091;28;20025;-71
2022/11/04 00:55:11;;;;;;;9.13;6.63;;;;;;;9.39;100.00;100079.75;5235845;28;20029;-71
2022/11/04 00:57:42;;;;;;;8.43;6.50;;;;;;;9.60;100.00;100123.69;5235265;28;20043;-72
2022/11/04 01:00:14;;;;;;;6.50;5.90;;;;;;;9.48;100.00;100119.31;5235920;28;20033;-73
2022/11/04 01:02:46;;;;;;;8.93;7.00;;;;;;;9.43;100.00;100124.81;5235804;28;20044;-71
2022/11/04 01:05:17;;;;;;;9.33;6.33;;;;;;;9.43;100.00;100123.06;5234508;28;20048;-71
2022/11/04 01:07:48;;;;;;;9.13;7.03;;;;;;;9.41;100.00;100131.91;5236130;28;20426;-71
2022/11/04 01:10:20;;;;;;;10.37;7.10;;;;;;;9.33;100.00;100124.59;5236127;28;20048;-72
2022/11/04 01:12:52;;;;;;;9.07;7.50;;;;;;;9.37;100.00;100131.31;5234522;28;20044;-72
2022/11/04 01:15:23;;;;;;;9.87;7.27;;;;;;;9.45;100.00;100146.47;5236053;28;20465;-72
2022/11/04 01:17:54;;;;;;;13.47;8.07;;;;;;;9.36;100.00;100150.53;5235430;28;20249;-73
2022/11/04 01:20:26;;;;;;;11.03;8.33;;;;;;;9.26;100.00;100146.84;5235659;28;20041;-72
2022/11/04 01:22:57;;;;;;;11.00;8.17;;;;;;;9.34;100.00;100160.22;5235421;28;20092;-72
2022/11/04 01:25:29;;;;;;;9.97;8.23;;;;;;;9.26;100.00;100154.69;5235694;28;20037;-72
2022/11/04 01:28:00;;;;;;;13.40;8.60;;;;;;;9.35;100.00;100163.69;5234296;28;20091;-73
2022/11/04 01:30:31;;;;;;;11.40;8.57;;;;;;;9.31;100.00;100150.00;5216668;28;20116;-72
2022/11/04 01:33:03;;;;;;;14.27;9.10;;;;;;;9.32;100.00;100156.88;5235438;28;20033;-72
2022/11/04 01:35:34;;;;;;;10.57;7.87;;;;;;;9.40;100.00;100153.78;5235794;28;20033;-72
2022/11/04 01:38:05;;;;;;;13.47;8.07;;;;;;;9.32;100.00;100149.88;5235360;28;20033;-72
2022/11/04 01:40:38;;;;;;;14.60;7.60;;;;;;;9.31;100.00;100150.00;5233766;28;20025;-72
2022/11/04 01:43:15;;;;;;;12.43;7.07;;;;;;;9.31;100.00;100160.44;5235238;28;20172;-73
2022/11/04 01:45:52;;;;;;;11.40;7.30;;;;;;;9.25;100.00;100153.84;5235225;28;20029;-71
2022/11/04 01:48:31;;;;;;;11.57;8.00;;;;;;;9.24;100.00;100160.00;5236107;28;20037;-70
2022/11/04 01:51:03;;;;;;;8.57;6.40;;;;;;;9.15;100.00;100145.78;5235340;28;20029;-70
2022/11/04 01:53:39;;;;;;;10.97;6.67;;;;;;;9.23;100.00;100157.50;5235292;28;20400;-71
2022/11/04 01:56:13;;;;;;;11.20;6.03;;;;;;;9.14;100.00;100148.47;5234269;28;20037;-72
2022/11/04 01:58:51;;;;;;;7.25;5.68;;;;;;;9.02;100.00;100147.50;5234831;28;20083;-70
2022/11/04 02:01:22;;;;;;;8.27;5.67;;;;;;;9.12;100.00;100139.91;5234459;28;20029;-70
2022/11/04 02:04:24;;;;;;;13.50;4.93;;;;;;;9.04;100.00;100156.91;5234711;28;20056;-71
2022/11/04 02:06:53;;;;;;;11.50;5.33;;;;;;;8.99;100.00;100155.56;5234980;28;20485;-70
2022/11/04 02:09:27;;;;;;;14.37;5.87;;;;;;;8.99;100.00;100164.19;5235272;28;20025;-71
2022/11/04 02:14:51;;;;;;;11.40;5.53;;;;;;;8.92;100.00;100161.16;5233909;28;20484;-72
2022/11/04 02:17:35;;;;;;;8.93;4.43;;;;;;;8.83;100.00;100154.75;5235237;28;20493;-71
2022/11/04 02:20:27;;;;;;;8.60;5.13;;;;;;;8.85;100.00;100154.63;5234447;28;20037;-70
2022/11/04 02:23:25;;;;;;;6.97;3.73;;;;;;;8.89;100.00;100163.13;5234171;28;20037;-71
2022/11/04 02:26:35;;;;;;;6.30;3.90;;;;;;;8.86;100.00;100166.78;5233975;28;20552;-71
2022/11/04 02:29:23;;;;;;;9.13;3.53;;;;;;;8.83;100.00;100177.44;5234715;28;20029;-73
2022/11/04 02:32:12;;;;;;;7.30;3.20;;;;;;;8.75;100.00;100179.66;5234296;28;20550;-71
2022/11/04 02:35:06;;;;;;;7.30;3.40;;;;;;;8.75;100.00;100179.66;5234571;28;20038;-71
2022/11/04 02:37:53;;;;;;;8.90;3.27;;;;;;;8.78;100.00;100176.88;5235295;28;20104;-71
2022/11/04 02:40:24;;;;;;;8.70;3.67;;;;;;;8.63;100.00;100181.25;5238837;28;20071;-71
2022/11/04 02:43:18;;;;;;;4.93;2.93;;;;;;;8.67;100.00;100177.53;5237238;28;20025;-70
2022/11/04 02:45:58;;;;;;;8.07;3.20;;;;;;;8.66;100.00;100181.91;5238686;28;20116;-71
2022/11/04 02:48:38;;;;;;;11.57;3.43;;;;;;;8.62;100.00;100174.38;5238398;28;20025;-71
2022/11/04 02:51:24;;;;;;;9.07;2.93;;;;;;;8.55;100.00;100173.91;5238583;28;20033;-71
2022/11/04 02:54:11;;;;;;;9.27;2.80;;;;;;;8.61;100.00;100183.97;5238387;28;20595;-72
2022/11/04 02:56:49;;;;;;;8.43;3.00;;;;;;;8.59;100.00;100180.63;5236932;28;20634;-73
2022/11/04 02:59:28;;;;;;;11.13;3.60;;;;;;;8.52;100.00;100179.31;5237943;28;20040;-72
2022/11/04 03:02:04;;;;;;;9.47;2.87;;;;;;;8.47;100.00;100188.25;5237987;28;20033;-71
2022/11/04 03:04:40;;;;;;;9.57;3.43;;;;;;;8.56;100.00;100180.81;5238041;28;20064;-71
2022/11/04 03:07:15;;;;;;;7.60;2.47;;;;;;;8.50;100.00;100181.19;5238648;28;20082;-71
2022/11/04 03:09:50;;;;;;;8.50;3.20;;;;;;;8.55;100.00;100194.78;5239737;28;20037;-72
2022/11/04 03:12:27;;;;;;;5.17;2.63;;;;;;;8.38;100.00;100172.34;5239321;28;20022;-71
2022/11/04 03:15:03;;;;;;;8.20;2.53;;;;;;;8.41;100.00;100188.63;5239208;28;20082;-71
2022/11/04 03:17:52;;;;;;;8.20;2.40;;;;;;;8.47;100.00;100195.25;5239679;28;20156;-70
2022/11/04 03:20:27;;;;;;;11.47;3.27;;;;;;;8.43;100.00;100199.00;5240166;28;20502;-72
2022/11/04 03:22:59;;;;;;;8.02;2.70;;;;;;;8.42;100.00;100185.09;5242981;28;20029;-70
2022/11/04 03:25:39;;;;;;;10.87;2.73;;;;;;;8.27;100.00;100166.00;5239654;28;20314;-71
2022/11/04 03:28:35;;;;;;;6.63;2.47;;;;;;;8.40;100.00;100194.78;5237862;28;20052;-71
2022/11/04 03:31:16;;;;;;;6.00;2.30;;;;;;;8.37;100.00;100191.50;5238174;28;20388;-71
2022/11/04 03:33:53;;;;;;;11.70;2.33;;;;;;;8.32;100.00;100194.41;5237715;28;20053;-71
2022/11/04 03:36:27;;;;;;;9.77;2.93;;;;;;;8.34;100.00;100198.59;5238352;28;20464;-72
2022/11/04 03:38:58;;;;;;;8.53;2.47;;;;;;;8.29;100.00;100200.63;5238257;28;20369;-73
2022/11/04 03:41:39;;;;;;;8.50;2.30;;;;;;;8.28;100.00;100198.13;5237009;28;20029;-70
2022/11/04 03:44:10;;;;;;;9.00;2.00;;;;;;;8.27;100.00;100199.06;5216908;28;20121;-71
2022/11/04 03:46:42;;;;;;;16.23;2.63;;;;;;;8.27;100.00;100202.53;5229421;28;20104;-71
2022/11/04 03:49:14;;;;;;;8.20;2.10;;;;;;;8.06;100.00;100182.03;5235709;28;20059;-72
2022/11/04 03:51:45;;;;;;;6.50;2.40;;;;;;;8.07;100.00;100181.09;5235066;28;20152;-71
2022/11/04 03:54:18;;;;;;;6.67;2.60;;;;;;;8.16;100.00;100195.34;5252622;28;20032;-70
2022/11/04 03:57:13;;;;;;;7.53;2.30;;;;;;;8.27;100.00;100201.69;5235573;28;20087;-70
2022/11/04 04:00:02;;;;;;;5.60;1.90;;;;;;;8.24;100.00;100200.09;5237290;28;20021;-72
2022/11/04 04:03:00;;;;;;;7.97;2.47;;;;;;;8.24;100.00;100200.09;5238028;28;20097;-70
2022/11/04 04:05:35;;;;;;;12.07;3.13;;;;;;;8.08;100.00;100187.16;5237845;28;20788;-71
2022/11/04 04:08:11;;;;;;;;;;;;;;;8.23;100.00;100195.81;5237736;28;20037;-72
2022/11/04 04:11:00;;;;;;;8.37;2.13;;;;;;;7.96;100.00;100199.97;5236074;28;19919;-73
2022/11/04 04:13:31;;;;;;;6.77;1.93;;;;;;;8.04;100.00;100199.53;5238235;28;20043;-74
2022/11/04 04:16:10;;;;;;;7.20;2.20;;;;;;;8.01;100.00;100191.91;5236469;28;20530;-71
2022/11/04 04:18:51;;;;;;;12.47;2.13;;;;;;;7.93;100.00;100205.38;5236905;28;20030;-70
2022/11/04 04:21:29;;;;;;;6.70;2.90;;;;;;;7.91;100.00;100209.84;5236011;28;20025;-71
2022/11/04 04:29:47;;;;;;;12.33;4.43;;;;;;;7.71;100.00;100221.44;5236371;28;20033;-70
2022/11/04 04:32:21;;;;;;;16.60;6.47;;;;;;;7.65;100.00;100222.63;5236732;28;20037;-71
2022/11/04 04:35:40;;;;;;;14.20;6.68;;;;;;;7.67;100.00;100225.13;5235819;28;20108;-71
2022/11/04 04:37:47;;;;;;;17.07;6.93;;;;;;;7.54;100.00;100188.53;5237037;28;20041;-71
2022/11/04 04:46:05;;;;;;;12.00;4.50;;;;;;;7.55;100.00;100232.75;5236284;28;20396;-73
2022/11/04 04:48:36;;;;;;;13.53;4.80;;;;;;;7.42;100.00;100227.38;5236177;28;20018;-72
2022/11/04 04:51:08;;;;;;;14.07;5.33;;;;;;;7.53;100.00;100225.94;5235863;28;20079;-72
2022/11/04 04:53:39;;;;;;;10.93;3.77;;;;;;;7.40;100.00;100211.00;5235934;28;20063;-72
2022/11/04 04:56:10;;;;;;;11.97;4.43;;;;;;;7.50;100.00;100229.56;5234444;28;20057;-72
2022/11/04 04:58:41;;;;;;;10.17;4.13;;;;;;;7.37;100.00;100218.97;5235628;28;20028;-72
2022/11/04 05:01:13;;;;;;;10.17;5.10;;;;;;;7.42;100.00;100240.41;5233549;28;20025;-73
2022/11/04 05:03:44;;;;;;;9.53;3.67;;;;;;;7.33;100.00;100235.72;5234567;28;20040;-73
2022/11/04 05:06:15;;;;;;;9.13;4.70;;;;;;;7.40;100.00;100250.06;5266974;28;20087;-72
2022/11/04 05:08:46;;;;;;;10.30;3.97;;;;;;;7.10;100.00;100202.22;5235699;28;20032;-72
2022/11/04 05:11:18;;;;;;;15.67;4.97;;;;;;;7.33;100.00;100238.34;5235139;28;20037;-72
2022/11/04 05:13:49;;;;;;;9.33;4.10;;;;;;;7.32;100.00;100250.50;5236160;28;20083;-72
2022/11/04 05:16:21;;;;;;;14.07;5.10;;;;;;;7.30;100.00;100241.94;5235904;28;20431;-72
2022/11/04 05:18:52;;;;;;;10.17;4.63;;;;;;;7.46;100.00;100262.78;5235742;28;20393;-72
2022/11/04 05:21:23;;;;;;;14.40;5.10;;;;;;;7.34;100.00;100255.63;5235788;28;20025;-72
2022/11/04 05:23:54;;;;;;;11.50;4.80;;;;;;;7.25;100.00;100247.41;5235068;28;20275;-71
2022/11/04 05:26:26;;;;;;;11.43;4.80;;;;;;;7.52;100.00;100258.13;5235046;28;20052;-71
2022/11/04 05:28:57;;;;;;;8.70;4.40;;;;;;;7.53;100.00;100272.84;5235559;28;20025;-72
2022/11/04 05:31:29;;;;;;;10.17;4.97;;;;;;;7.31;100.00;100261.03;5234795;28;20029;-72
2022/11/04 05:34:00;;;;;;;9.90;5.43;;;;;;;7.48;100.00;100275.69;5235035;28;20566;-73
2022/11/04 05:36:32;;;;;;;11.30;5.50;;;;;;;7.46;100.00;100275.78;5235221;28;20390;-72
2022/11/04 05:39:04;;;;;;;9.53;5.17;;;;;;;7.38;100.00;100278.00;5235300;28;20076;-71
2022/11/04 05:41:35;;;;;;;15.10;6.13;;;;;;;7.38;100.00;100278.81;5234301;28;20120;-72
2022/11/04 05:44:08;;;;;;;13.17;6.20;;;;;;;7.28;100.00;100261.19;5235547;28;20097;-71
2022/11/04 05:46:39;;;;;;;15.47;5.20;;;;;;;7.41;100.00;100262.19;5235862;28;20021;-71
2022/11/04 05:49:10;;;;;;;13.60;6.07;;;;;;;7.37;100.00;100268.47;5234867;28;20087;-72
2022/11/04 05:51:42;;;;;;;13.20;5.13;;;;;;;7.39;100.00;100264.03;5235119;28;20610;-71
2022/11/04 05:54:13;;;;;;;11.17;5.30;;;;;;;7.49;100.00;100288.66;5235557;28;20423;-72
2022/11/04 05:56:45;;;;;;;12.50;5.13;;;;;;;7.52;100.00;100284.19;5233677;28;20045;-71
2022/11/04 05:59:17;;;;;;;14.53;5.20;;;;;;;7.43;100.00;100286.41;5235568;28;20052;-72
2022/11/04 06:01:49;;;;;;;8.30;4.20;;;;;;;7.40;100.00;100296.97;5234005;28;20025;-72
2022/11/04 06:04:20;;;;;;;15.70;5.43;;;;;;;7.47;100.00;100292.28;5222074;28;20507;-74
2022/11/04 06:06:51;;;;;;;11.00;4.30;;;;;;;7.53;100.00;100301.50;5227891;28;20033;-69
2022/11/04 06:09:37;;;;;;;11.97;4.80;;;;;;;7.43;100.00;100299.41;5234519;28;20523;-70
2022/11/04 06:12:13;;;;;;;14.67;5.50;;;;;;;7.46;100.00;100301.84;5233599;28;20137;-71
2022/11/04 06:14:45;;;;;;;16.27;6.10;;;;;;;7.19;100.00;100271.16;5235831;28;20598;-72
2022/11/04 06:17:18;;;;;;;13.97;4.97;;;;;;;7.37;100.00;100298.00;5236831;28;20025;-73
2022/11/04 06:19:49;;;;;;;14.43;5.27;;;;;;;7.28;100.00;100303.69;5220962;28;20060;-72
2022/11/04 06:22:21;;;;;;;17.13;5.40;;;;;;;7.32;100.00;100299.16;5227777;28;20462;-71
2022/11/04 06:24:52;;;;;;;10.33;4.97;;;;;;;7.37;100.00;100307.56;5236474;28;20250;-72
2022/11/04 06:27:24;;;;;;;17.70;5.03;;;;;;;7.36;100.00;100298.06;5235093;28;20112;-73
2022/11/04 06:29:55;;;;;;;11.70;4.97;;;;;;;7.37;100.00;100307.56;5239811;28;20041;-73
2022/11/04 06:32:26;;;;;;;13.90;4.83;;;;;;;7.17;100.00;100311.25;5239901;28;20037;-72
2022/11/04 06:34:58;;;;;;;15.53;6.27;;;;;;;7.21;100.00;100318.81;5236228;28;20033;-72
2022/11/04 06:37:29;;;;;;;13.00;4.80;;;;;;;7.09;100.00;100322.94;5239398;28;20103;-72
2022/11/04 06:40:00;;;;;;;11.93;4.93;;;;;;;7.21;100.00;100324.03;5239204;28;20152;-72
2022/11/04 06:42:31;;;;;;;11.53;4.47;;;;;;;7.11;100.00;100322.84;5239822;28;20029;-72
2022/11/04 06:45:03;;;;;;;11.40;4.10;;;;;;;7.26;100.00;100342.84;5239250;28;20048;-72
2022/11/04 06:47:34;;;;;;;14.00;3.93;;;;;;;7.21;100.00;100334.44;5238490;28;20033;-72
2022/11/04 06:50:06;;;;;;;10.07;4.20;;;;;;;7.16;100.00;100331.25;5238096;28;20082;-72
2022/11/04 06:52:37;;;;;;;9.33;3.47;;;;;;;7.02;100.00;100332.84;5237002;28;20037;-72
2022/11/04 06:55:09;;;;;;;8.57;3.70;;;;;;;7.17;100.00;100338.16;5236166;28;20110;-71
2022/11/04 06:57:40;;;;;;;9.23;4.00;;;;;;;7.21;100.00;100350.06;5238692;28;20024;-74
2022/11/04 07:00:12;;;;;;;15.63;4.87;;;;;;;7.21;100.00;100350.06;5238422;28;20026;-74
2022/11/04 07:02:43;;;;;;;13.87;4.90;;;;;;;7.30;100.00;100359.16;5237968;28;20025;-76
2022/11/04 07:05:15;;;;;;;13.43;4.60;;;;;;;7.09;100.00;100328.13;5238399;28;20115;-73
2022/11/04 07:07:46;;;;;;;12.90;4.30;;;;;;;6.89;100.00;100310.97;5239054;28;20035;-73
2022/11/04 07:10:17;;;;;;;14.10;3.93;;;;;;;7.23;100.00;100363.00;5235731;28;20455;-74
2022/11/04 07:12:48;;;;;;;10.90;3.40;;;;;;;7.29;100.00;100367.91;5239193;28;20030;-72
2022/11/04 07:15:20;;;;;;;8.37;3.17;;;;;;;7.33;100.00;100356.38;5238819;28;20033;-72
2022/11/04 07:17:51;;;;;;;13.33;3.40;;;;;;;7.34;100.00;100358.09;5239085;28;20029;-72
2022/11/04 07:20:22;;;;;;;12.70;4.17;;;;;;;7.38;100.00;100363.97;5236414;28;20442;-72
2022/11/04 07:22:54;;;;;;;10.07;3.73;;;;;;;7.58;100.00;100377.66;5244008;28;20362;-72
2022/11/04 07:25:25;;;;;;;13.50;5.00;;;;;;;7.43;100.00;100359.34;5235798;28;20057;-74
2022/11/04 07:27:57;;;;;;;14.40;3.80;;;;;;;7.43;100.00;100335.91;5237789;28;20022;-71
2022/11/04 07:30:28;;;;;;;17.60;4.90;;;;;;;7.21;100.00;100324.03;5239298;28;20037;-73
2022/11/04 07:33:00;;;;;;;16.23;5.30;;;;;;;7.61;100.00;100360.09;5238233;28;20083;-72
2022/11/04 07:35:31;;;;;;;14.67;6.73;;;;;;;7.59;100.00;100367.16;5238887;28;20510;-72
2022/11/04 07:38:02;;;;;;;13.30;5.63;;;;;;;7.66;100.00;100369.44;5238810;28;20067;-73
2022/11/04 07:40:34;;;;;;;13.67;5.10;;;;;;;7.70;100.00;100376.97;5236785;28;20091;-73
2022/11/04 07:43:05;;;;;;;16.90;5.07;;;;;;;7.82;100.00;100390.28;5236662;28;20116;-78
2022/11/04 07:45:37;;;;;;;16.57;5.80;;;;;;;7.80;100.00;100387.72;5236150;28;20061;-75
2022/11/04 07:48:08;;;;;;;11.33;4.60;;;;;;;7.74;100.00;100388.09;5236809;28;20662;-73
2022/11/04 07:50:40;;;;;;;9.07;4.90;;;;;;;7.87;100.00;100398.69;5235496;28;20539;-73
2022/11/04 07:53:11;;;;;;;11.57;4.30;;;;;;;7.84;100.00;100383.19;5237343;28;20025;-73
2022/11/04 07:55:48;;;;;;;13.63;4.57;;;;;;;7.85;100.00;100382.28;5236144;28;20025;-71
2022/11/04 07:58:20;;;;;;;13.77;4.87;;;;;;;7.91;100.00;100394.97;5237002;28;20033;-73
2022/11/04 08:01:00;;;;;;;14.07;5.50;;;;;;;8.06;100.00;100402.88;5237050;28;20083;-73
2022/11/04 08:03:33;;;;;;;14.40;5.80;;;;;;;8.02;100.00;100373.50;5233254;28;20048;-74
2022/11/04 08:06:07;;;;;;;21.53;5.97;;;;;;;8.23;100.00;100410.59;5237241;28;20030;-73
2022/11/04 08:08:38;;;;;;;13.25;5.05;;;;;;;8.05;100.00;100360.28;5236705;28;20082;-73
2022/11/04 08:11:12;;;;;;;16.40;5.10;;;;;;;8.39;100.00;100394.03;5237002;28;20026;-74
2022/11/04 08:13:45;;;;;;;19.27;5.32;;;;;;;8.37;100.00;100395.91;5237465;28;20025;-75
2022/11/04 08:16:18;;;;;;;14.07;5.03;;;;;;;8.10;100.00;100362.63;5236709;28;20065;-74
2022/11/04 08:18:54;;;;;;;20.25;5.32;;;;;;;8.32;100.00;100397.94;5237775;28;20033;-73
2022/11/04 08:21:26;;;;;;;30.77;5.30;;;;;;;8.59;100.00;100416.38;5238585;28;20025;-72
2022/11/04 08:23:58;;;;;;;14.00;4.30;;;;;;;8.69;100.00;100423.69;5237421;28;20025;-72
2022/11/04 08:26:30;;;;;;;11.90;4.73;;;;;;;8.55;100.00;100403.59;5237277;28;20049;-73
2022/11/04 08:29:06;;;;;;;15.63;5.00;;;;;;;8.69;100.00;100416.69;5237657;28;21065;-72
2022/11/04 08:31:39;;;;;;;16.47;5.23;;;;;;;8.60;100.00;100401.56;5237781;28;20033;-72
2022/11/04 08:34:10;;;;;;;16.73;5.47;;;;;;;8.78;100.00;100427.53;5237403;28;20017;-72
2022/11/04 08:36:41;;;;;;;13.90;6.97;;;;;;;8.94;100.00;100453.56;5269209;28;20037;-72
2022/11/04 08:39:13;;;;;;;11.00;6.20;;;;;;;8.73;100.00;100416.53;5237038;28;20082;-73
2022/11/04 08:41:44;;;;;;;15.97;6.07;;;;;;;8.79;100.00;100421.38;5236532;28;20061;-72
2022/11/04 08:44:16;;;;;;;17.90;7.03;;;;;;;8.89;100.00;100427.72;5237469;28;20094;-73
2022/11/04 08:46:47;;;;;;;17.03;5.87;;;;;;;8.79;100.00;100421.38;5237556;28;20492;-72
2022/11/04 08:49:19;;;;;;;19.33;6.00;;;;;;;9.00;100.00;100450.59;5239144;28;20037;-72
2022/11/04 08:51:56;;;;;;;14.97;5.40;;;;;;;9.01;100.00;100448.81;5235688;28;20034;-73
2022/11/04 08:54:27;;;;;;;13.80;5.30;;;;;;;9.02;100.00;100458.34;5237922;28;20030;-73
2022/11/04 08:56:58;;;;;;;17.17;5.47;;;;;;;8.89;100.00;100435.56;5237209;28;20056;-72
2022/11/04 08:59:30;;;;;;;15.77;5.30;;;;;;;8.96;100.00;100436.03;5237598;28;20039;-72
2022/11/04 09:02:01;;;;;;;13.83;5.83;;;;;;;9.18;100.00;100464.31;5237834;28;20082;-72
2022/11/04 09:04:33;;;;;;;16.53;5.50;;;;;;;9.09;100.00;100457.06;5236767;28;20049;-72
2022/11/04 09:07:05;;;;;;;13.37;5.07;;;;;;;9.16;100.00;100441.84;5239963;28;20348;-73
2022/11/04 09:09:38;;;;;;;15.67;4.67;;;;;;;9.26;100.00;100473.47;5238887;28;20431;-73
2022/11/04 09:12:10;;;;;;;11.73;4.27;;;;;;;9.46;100.00;100482.72;5236967;28;20033;-73
2022/11/04 09:14:41;;;;;;;16.33;5.97;;;;;;;9.42;100.00;100476.84;5237289;28;20044;-73
2022/11/04 09:17:12;;;;;;;16.07;6.20;;;;;;;9.20;100.00;100435.47;5236365;28;20522;-73
2022/11/04 09:19:44;;;;;;;18.50;8.07;;;;;;;9.47;100.00;100478.31;5235408;28;20037;-72
2022/11/04 09:22:15;;;;;;;15.67;6.70;;;;;;;9.50;100.00;100478.13;5236912;28;20610;-71
2022/11/04 09:24:47;;;;;;;16.13;6.37;;;;;;;9.43;100.00;100467.22;5236206;28;20033;-72
2022/11/04 09:27:18;;;;;;;11.20;4.73;;;;;;;9.62;100.00;100502.69;5237076;28;20072;-72
2022/11/04 09:29:50;;;;;;;13.80;5.90;;;;;;;9.58;100.00;100488.97;5236497;28;20083;-72
2022/11/04 09:32:21;;;;;;;13.80;6.20;;;;;;;9.58;100.00;100496.81;5237098;28;20037;-72
2022/11/04 09:34:52;;;;;;;15.13;5.13;;;;;;;9.61;100.00;100499.25;5236555;28;20032;-72
2022/11/04 09:37:24;;;;;;;15.27;5.37;;;;;;;9.49;100.00;100490.38;5236942;28;20729;-72
2022/11/04 09:39:55;;;;;;;16.47;5.43;;;;;;;9.61;100.00;100516.69;5235967;28;20067;-72
2022/11/04 09:42:51;;;;;;;11.30;4.47;;;;;;;9.79;100.00;100535.66;5236751;28;20029;-73
2022/11/04 09:45:26;;;;;;;12.37;5.47;;;;;;;9.67;100.00;100511.94;5236642;28;20554;-73
2022/11/04 09:48:02;;;;;;;12.87;4.83;;;;;;;9.72;100.00;100537.78;5237998;28;20552;-72
2022/11/04 09:50:56;;;;;;;15.30;4.97;;;;;;;9.89;100.00;100544.63;5241276;28;20072;-72
2022/11/04 09:53:36;;;;;;;15.03;4.37;;;;;;;9.78;100.00;100531.34;5240985;28;20184;-73
2022/11/04 09:56:15;;;;;;;9.33;3.93;;;;;;;9.83;100.00;100542.38;5239562;28;20051;-72
2022/11/04 09:58:48;;;;;;;12.67;4.73;;;;;;;9.95;100.00;100540.75;5240508;28;20033;-71
2022/11/04 10:01:41;;;;;;;12.37;4.50;;;;;;;10.08;100.00;100550.47;5240862;28;20472;-73
2022/11/04 10:04:23;;;;;;;9.70;4.60;;;;;;;9.97;100.00;100522.34;5239835;28;20045;-72
2022/11/04 10:07:41;;;;;;;12.67;5.07;;;;;;;10.21;100.00;100546.13;5240282;28;20041;-72
2022/11/04 10:10:29;;;;;;;11.37;5.07;;;;;;;10.13;100.00;100533.56;5238505;28;20129;-73
2022/11/04 10:13:37;;;;;;;12.93;5.57;;;;;;;10.22;100.00;100531.28;5239217;28;20021;-72
2022/11/04 10:16:28;;;;;;;14.50;4.30;;;;;;;10.24;100.00;100526.78;5240104;28;20064;-72
2022/11/04 10:19:25;;;;;;;13.40;5.00;;;;;;;10.57;100.00;100571.88;5240414;28;20021;-72
2022/11/04 10:22:22;;;;;;;14.23;5.87;;;;;;;10.50;100.00;100543.50;5240203;28;20041;-72
2022/11/04 10:25:15;;;;;;;17.63;5.87;;;;;;;10.79;100.00;100563.47;5239307;28;20562;-73
2022/11/04 10:27:49;;;;;;;16.80;5.40;;;;;;;10.74;100.00;100548.06;5239671;28;20026;-72
2022/11/04 10:30:23;;;;;;;14.80;5.10;;;;;;;10.84;100.00;100553.53;5240563;28;20029;-72
2022/11/04 10:33:10;;;;;;;14.98;5.95;;;;;;;10.86;100.00;100540.31;5240084;28;20026;-72
2022/11/04 10:35:52;;;;;;;15.53;5.67;;;;;;;11.07;100.00;100579.16;5240275;28;20022;-71
2022/11/04 10:38:37;;;;;;;18.20;5.30;;;;;;;10.79;100.00;100539.91;5240130;28;20083;-72
2022/11/04 10:41:38;;;;;;;19.80;7.00;;;;;;;11.16;100.00;100583.78;5239237;28;20045;-72
2022/11/04 10:44:34;;;;;;;14.90;5.67;;;;;;;11.09;100.00;100585.97;5238501;28;20045;-72
2022/11/04 10:47:24;;;;;;;14.50;5.70;;;;;;;11.18;100.00;100602.03;5239529;28;20030;-72
2022/11/04 10:50:17;;;;;;;14.57;5.97;;;;;;;11.11;100.00;100586.72;5240297;28;20032;-72
2022/11/04 10:52:48;;;;;;;14.67;6.87;;;;;;;11.17;100.00;100611.66;5239930;28;20513;-73
2022/11/04 10:55:35;;;;;;;17.83;6.17;;;;;;;11.36;100.00;100611.28;5238693;28;20100;-74
2022/11/04 10:58:22;;;;;;;13.50;6.33;;;;;;;11.36;100.00;100603.41;5239458;28;20026;-73
2022/11/04 11:00:54;;;;;;;22.37;8.27;;;;;;;11.22;100.00;100572.88;5238830;28;20107;-73
2022/11/04 11:03:29;;;;;;;16.87;7.37;;;;;;;11.47;100.00;100591.38;5239823;28;20512;-73
2022/11/04 11:06:23;;;;;;;14.87;6.70;;;;;;;11.28;100.00;100560.31;5238921;28;20089;-73
2022/11/04 11:09:13;;;;;;;16.57;7.20;;;;;;;11.42;100.00;100602.19;5239726;28;20491;-73
2022/11/04 11:11:47;;;;;;;14.57;7.57;;;;;;;11.46;100.00;100603.66;5239546;28;20076;-73
2022/11/04 11:14:27;;;;;;;16.15;6.78;;;;;;;11.56;100.00;100600.41;5239345;28;20046;-73
2022/11/04 11:17:14;;;;;;;14.57;7.17;;;;;;;11.64;100.00;100597.25;5239352;28;20036;-72
2022/11/04 11:19:54;;;;;;;14.53;7.30;;;;;;;11.64;100.00;100589.38;5239203;28;20029;-72
2022/11/04 11:22:30;;;;;;;19.83;8.20;;;;;;;11.56;100.00;100611.72;5239431;28;20026;-72
2022/11/04 11:25:32;;;;;;;20.57;9.60;;;;;;;11.55;100.00;100601.34;5238188;28;20087;-72
2022/11/04 11:28:06;;;;;;;14.33;6.97;;;;;;;11.56;100.00;100616.97;5239288;28;20026;-72
2022/11/04 11:30:44;;;;;;;16.67;7.13;;;;;;;11.54;100.00;100613.63;5239602;28;20028;-72
2022/11/04 11:33:21;;;;;;;17.03;9.20;;;;;;;11.52;100.00;100588.44;5239439;28;20033;-72
2022/11/04 11:36:01;;;;;;;10.30;5.90;;;;;;;11.73;100.00;100602.72;5239282;28;20037;-72
2022/11/04 11:38:33;;;;;;;12.80;7.47;;;;;;;11.61;100.00;100601.78;5239109;28;20040;-71
2022/11/04 11:41:09;;;;;;;17.53;7.50;;;;;;;11.55;100.00;100604.81;5237962;28;20029;-72
2022/11/04 11:43:48;;;;;;;15.23;6.63;;;;;;;11.52;100.00;100589.28;5239148;28;20025;-72
2022/11/04 11:46:25;;;;;;;16.13;7.77;;;;;;;11.48;100.00;100579.94;5239198;28;20108;-72
2022/11/04 11:49:00;;;;;;;18.53;6.40;;;;;;;11.38;100.00;100579.72;5238672;28;20029;-72
2022/11/04 11:51:36;;;;;;;14.17;6.33;;;;;;;11.54;100.00;100605.75;5238599;28;20084;-73
2022/11/04 11:54:22;;;;;;;17.47;7.87;;;;;;;11.70;100.00;100605.53;5237925;28;20463;-73
2022/11/04 11:56:55;;;;;;;18.37;6.70;;;;;;;11.64;100.00;100607.75;5239097;28;20029;-74
2022/11/04 11:59:41;;;;;;;12.85;6.40;;;;;;;11.46;100.00;100568.72;5238348;28;20431;-73
2022/11/04 12:02:27;;;;;;;13.17;6.67;;;;;;;11.51;100.00;100569.25;5236889;28;20025;-73
2022/11/04 12:05:00;;;;;;;14.50;7.30;;;;;;;11.70;100.00;100604.69;5237966;28;20049;-73
2022/11/04 12:07:40;;;;;;;17.00;6.93;;;;;;;11.83;100.00;100629.13;5237897;28;20025;-73
2022/11/04 12:10:35;;;;;;;13.53;7.67;;;;;;;11.94;100.00;100619.69;5236599;28;20032;-73
2022/11/04 12:13:19;;;;;;;13.37;7.43;;;;;;;11.64;100.00;100589.38;5237746;28;20492;-73
2022/11/04 12:15:50;;;;;;;;;;;;;;;12.08;100.00;100630.06;5238357;28;20116;-72
2022/11/04 12:18:34;;;;;;;16.00;7.83;;;;;;;11.97;100.00;100625.56;5269939;28;20043;-73
2022/11/04 12:21:20;;;;;;;11.67;6.63;;;;;;;11.89;100.00;100616.53;5237522;28;20052;-73
2022/11/04 12:24:34;;;;;;;15.63;7.70;;;;;;;12.03;100.00;100649.69;5237110;28;20488;-73
2022/11/04 12:27:15;;;;;;;13.67;6.33;;;;;;;11.76;100.00;100606.91;5235866;28;20028;-73
2022/11/04 12:30:05;;;;;;;12.23;6.37;;;;;;;11.95;100.00;100634.50;5237515;28;20029;-73